首页
METAR-TAF:

METAR-TAF

机场 :

Ponta Delgada, 亚速尔群岛, 葡萄牙

纬度: 37-44N, 经度: 025-42W, 海拔: 71米

当前天气观测

该预报发布于21分钟前的00:30 UTC
风速3节,风向北转西北,在西北之间变化
温度 20°C
湿度 83%
气压 1026 hPa
能见度10公里或以上
少量云层高于1800英尺

METAR: LPPD 210030Z 34003KT 310V010 9999 FEW018 20/17 Q1026

时间: 00:51 (00:51 UTC)

预报

该预报发布于1小时和51分钟前的23:00 UTC
预报有效从21日的 00点(UTC)到 21日的 24点(UTC)
风速5节,风向多变
能见度10公里或以上
散云层高于1200英尺
短暂存在
从 21日的 00点(UTC)到 21日的 12点(UTC)
能見度: 5000
散云层高于300英尺
多云层高于600英尺
毛毛雨, 雨
成为
从 21日的 18点(UTC)到 21日的 21点(UTC)
风速7节,风向

TAF: LPPD 202300Z 2100/2124 VRB05KT 9999 SCT012 TEMPO 2100/2112 5000 DZRA SCT003 BKN006 BECMG 2118/2121 35007KT

超过4000个机场的气象观测和天气预报(METAR&TAF报告)。

可查询的气象台以黄色和红色小点在地图上表示。

将鼠标移到小点上方,可查看气象台名称。

然后点击查看天气观测和预报。

如需切换地图:点击带黑十字的绿色按钮放大地图;点击带横线的绿色按钮缩小地图;或者点击绿色箭头查看邻近地区的地图。


METAR-TAF: